sensor_id;sensor_type;location;lat;lon;timestamp;P1;durP1;ratioP1;P2;durP2;ratioP2
67819;SDS011;54618;52.018;5.576;2022-12-18T00:01:32;22.13;;;11.70;;
67819;SDS011;54618;52.018;5.576;2022-12-18T00:04:00;23.00;;;11.73;;
67819;SDS011;54618;52.018;5.576;2022-12-18T00:06:27;23.83;;;12.27;;
67819;SDS011;54618;52.018;5.576;2022-12-18T00:08:54;23.25;;;11.88;;
67819;SDS011;54618;52.018;5.576;2022-12-18T00:11:22;21.60;;;11.32;;
67819;SDS011;54618;52.018;5.576;2022-12-18T00:13:49;22.35;;;11.18;;
67819;SDS011;54618;52.018;5.576;2022-12-18T00:16:17;21.90;;;11.27;;
67819;SDS011;54618;52.018;5.576;2022-12-18T00:18:50;24.67;;;12.27;;
67819;SDS011;54618;52.018;5.576;2022-12-18T00:23:44;22.70;;;10.38;;
67819;SDS011;54618;52.018;5.576;2022-12-18T00:26:11;19.73;;;10.45;;
67819;SDS011;54618;52.018;5.576;2022-12-18T00:28:45;19.10;;;10.50;;
67819;SDS011;54618;52.018;5.576;2022-12-18T00:31:12;23.25;;;11.25;;
67819;SDS011;54618;52.018;5.576;2022-12-18T00:33:39;21.45;;;10.98;;
67819;SDS011;54618;52.018;5.576;2022-12-18T00:36:06;21.75;;;11.13;;
67819;SDS011;54618;52.018;5.576;2022-12-18T00:38:34;21.83;;;11.13;;
67819;SDS011;54618;52.018;5.576;2022-12-18T00:41:00;20.52;;;10.70;;
67819;SDS011;54618;52.018;5.576;2022-12-18T00:43:26;20.52;;;11.10;;
67819;SDS011;54618;52.018;5.576;2022-12-18T00:45:52;21.48;;;11.30;;
67819;SDS011;54618;52.018;5.576;2022-12-18T00:48:17;21.58;;;11.93;;
67819;SDS011;54618;52.018;5.576;2022-12-18T00:50:43;21.55;;;11.40;;
67819;SDS011;54618;52.018;5.576;2022-12-18T00:53:09;21.27;;;11.15;;
67819;SDS011;54618;52.018;5.576;2022-12-18T00:55:34;23.25;;;11.38;;
67819;SDS011;54618;52.018;5.576;2022-12-18T00:58:01;21.88;;;11.02;;
67819;SDS011;54618;52.018;5.576;2022-12-18T01:00:27;25.30;;;11.70;;
67819;SDS011;54618;52.018;5.576;2022-12-18T01:02:52;23.15;;;11.07;;
67819;SDS011;54618;52.018;5.576;2022-12-18T01:05:18;22.83;;;12.40;;
67819;SDS011;54618;52.018;5.576;2022-12-18T01:07:43;20.88;;;10.63;;
67819;SDS011;54618;52.018;5.576;2022-12-18T01:10:09;22.88;;;11.45;;
67819;SDS011;54618;52.018;5.576;2022-12-18T01:12:36;24.35;;;11.85;;
67819;SDS011;54618;52.018;5.576;2022-12-18T01:15:02;20.20;;;11.18;;
67819;SDS011;54618;52.018;5.576;2022-12-18T01:17:29;23.90;;;11.40;;
67819;SDS011;54618;52.018;5.576;2022-12-18T01:19:55;21.98;;;11.32;;
67819;SDS011;54618;52.018;5.576;2022-12-18T01:22:20;21.33;;;11.52;;
67819;SDS011;54618;52.018;5.576;2022-12-18T01:24:46;23.73;;;11.80;;
67819;SDS011;54618;52.018;5.576;2022-12-18T01:27:11;22.58;;;11.30;;
67819;SDS011;54618;52.018;5.576;2022-12-18T01:29:37;22.15;;;11.60;;
67819;SDS011;54618;52.018;5.576;2022-12-18T01:32:03;21.88;;;11.77;;
67819;SDS011;54618;52.018;5.576;2022-12-18T01:34:28;20.55;;;10.88;;
67819;SDS011;54618;52.018;5.576;2022-12-18T01:36:54;22.60;;;11.30;;
67819;SDS011;54618;52.018;5.576;2022-12-18T01:39:19;21.20;;;11.18;;
67819;SDS011;54618;52.018;5.576;2022-12-18T01:41:45;24.02;;;11.23;;
67819;SDS011;54618;52.018;5.576;2022-12-18T01:50:13;21.10;;;10.93;;
67819;SDS011;54618;52.018;5.576;2022-12-18T01:52:39;22.50;;;11.13;;
67819;SDS011;54618;52.018;5.576;2022-12-18T01:55:11;21.17;;;10.80;;
67819;SDS011;54618;52.018;5.576;2022-12-18T01:57:39;21.90;;;10.95;;
67819;SDS011;54618;52.018;5.576;2022-12-18T02:00:11;22.02;;;11.05;;
67819;SDS011;54618;52.018;5.576;2022-12-18T02:02:41;18.48;;;10.77;;
67819;SDS011;54618;52.018;5.576;2022-12-18T02:05:09;21.63;;;10.80;;
67819;SDS011;54618;52.018;5.576;2022-12-18T02:07:59;20.70;;;11.02;;
67819;SDS011;54618;52.018;5.576;2022-12-18T02:10:40;19.50;;;10.57;;
67819;SDS011;54618;52.018;5.576;2022-12-18T02:19:04;20.83;;;10.30;;
67819;SDS011;54618;52.018;5.576;2022-12-18T02:21:54;19.00;;;10.30;;
67819;SDS011;54618;52.018;5.576;2022-12-18T02:24:41;21.65;;;11.40;;
67819;SDS011;54618;52.018;5.576;2022-12-18T02:27:28;20.42;;;10.80;;
67819;SDS011;54618;52.018;5.576;2022-12-18T02:29:57;22.35;;;11.85;;
67819;SDS011;54618;52.018;5.576;2022-12-18T02:32:30;19.38;;;10.77;;
67819;SDS011;54618;52.018;5.576;2022-12-18T02:35:00;21.75;;;11.10;;
67819;SDS011;54618;52.018;5.576;2022-12-18T02:37:29;20.70;;;10.57;;
67819;SDS011;54618;52.018;5.576;2022-12-18T02:39:56;19.70;;;10.70;;
67819;SDS011;54618;52.018;5.576;2022-12-18T02:42:24;20.90;;;10.68;;
67819;SDS011;54618;52.018;5.576;2022-12-18T02:44:54;20.13;;;10.93;;
67819;SDS011;54618;52.018;5.576;2022-12-18T02:47:21;22.60;;;10.45;;
67819;SDS011;54618;52.018;5.576;2022-12-18T02:53:10;18.48;;;10.15;;
67819;SDS011;54618;52.018;5.576;2022-12-18T02:58:13;20.83;;;10.60;;
67819;SDS011;54618;52.018;5.576;2022-12-18T03:00:40;19.95;;;10.77;;
67819;SDS011;54618;52.018;5.576;2022-12-18T03:03:26;20.27;;;10.70;;
67819;SDS011;54618;52.018;5.576;2022-12-18T03:06:02;20.92;;;10.60;;
67819;SDS011;54618;52.018;5.576;2022-12-18T03:08:34;18.70;;;9.98;;
67819;SDS011;54618;52.018;5.576;2022-12-18T03:13:45;20.05;;;10.43;;
67819;SDS011;54618;52.018;5.576;2022-12-18T03:16:18;17.77;;;9.52;;
67819;SDS011;54618;52.018;5.576;2022-12-18T03:19:04;18.13;;;10.27;;
67819;SDS011;54618;52.018;5.576;2022-12-18T03:21:42;19.42;;;10.23;;
67819;SDS011;54618;52.018;5.576;2022-12-18T03:24:12;22.38;;;11.20;;
67819;SDS011;54618;52.018;5.576;2022-12-18T03:26:42;19.23;;;10.02;;
67819;SDS011;54618;52.018;5.576;2022-12-18T03:31:44;18.80;;;9.75;;
67819;SDS011;54618;52.018;5.576;2022-12-18T03:34:15;19.17;;;10.18;;
67819;SDS011;54618;52.018;5.576;2022-12-18T03:36:44;19.23;;;9.75;;
67819;SDS011;54618;52.018;5.576;2022-12-18T03:39:10;18.85;;;9.45;;
67819;SDS011;54618;52.018;5.576;2022-12-18T03:46:30;19.63;;;9.63;;
67819;SDS011;54618;52.018;5.576;2022-12-18T03:49:03;18.75;;;10.15;;
67819;SDS011;54618;52.018;5.576;2022-12-18T03:51:41;18.70;;;9.55;;
67819;SDS011;54618;52.018;5.576;2022-12-18T03:54:15;16.30;;;9.38;;
67819;SDS011;54618;52.018;5.576;2022-12-18T03:56:44;19.17;;;10.07;;
67819;SDS011;54618;52.018;5.576;2022-12-18T03:59:13;16.38;;;9.43;;
67819;SDS011;54618;52.018;5.576;2022-12-18T04:01:42;15.88;;;9.07;;
67819;SDS011;54618;52.018;5.576;2022-12-18T04:04:12;17.25;;;9.63;;
67819;SDS011;54618;52.018;5.576;2022-12-18T04:06:39;16.15;;;9.20;;
67819;SDS011;54618;52.018;5.576;2022-12-18T04:09:07;15.80;;;9.52;;
67819;SDS011;54618;52.018;5.576;2022-12-18T04:11:33;16.52;;;9.10;;
67819;SDS011;54618;52.018;5.576;2022-12-18T04:13:58;16.48;;;8.85;;
67819;SDS011;54618;52.018;5.576;2022-12-18T04:16:24;17.73;;;9.65;;
67819;SDS011;54618;52.018;5.576;2022-12-18T04:18:50;17.27;;;9.55;;
67819;SDS011;54618;52.018;5.576;2022-12-18T04:21:16;17.20;;;8.98;;
67819;SDS011;54618;52.018;5.576;2022-12-18T04:23:42;15.63;;;8.85;;
67819;SDS011;54618;52.018;5.576;2022-12-18T04:26:07;17.73;;;9.27;;
67819;SDS011;54618;52.018;5.576;2022-12-18T04:28:33;16.35;;;9.05;;
67819;SDS011;54618;52.018;5.576;2022-12-18T04:30:58;15.40;;;8.48;;
67819;SDS011;54618;52.018;5.576;2022-12-18T04:33:24;18.17;;;9.43;;
67819;SDS011;54618;52.018;5.576;2022-12-18T04:35:49;16.95;;;9.13;;
67819;SDS011;54618;52.018;5.576;2022-12-18T04:38:15;16.85;;;9.25;;
67819;SDS011;54618;52.018;5.576;2022-12-18T04:40:40;14.40;;;8.65;;
67819;SDS011;54618;52.018;5.576;2022-12-18T04:43:06;15.27;;;8.35;;
67819;SDS011;54618;52.018;5.576;2022-12-18T04:45:31;14.80;;;8.60;;
67819;SDS011;54618;52.018;5.576;2022-12-18T04:47:58;15.52;;;8.68;;
67819;SDS011;54618;52.018;5.576;2022-12-18T04:50:24;16.25;;;8.98;;
67819;SDS011;54618;52.018;5.576;2022-12-18T04:52:49;15.60;;;8.57;;
67819;SDS011;54618;52.018;5.576;2022-12-18T04:55:15;14.95;;;8.10;;
67819;SDS011;54618;52.018;5.576;2022-12-18T04:57:40;14.05;;;7.97;;
67819;SDS011;54618;52.018;5.576;2022-12-18T05:00:06;14.90;;;8.30;;
67819;SDS011;54618;52.018;5.576;2022-12-18T05:02:32;13.45;;;8.10;;
67819;SDS011;54618;52.018;5.576;2022-12-18T05:04:58;16.17;;;8.52;;
67819;SDS011;54618;52.018;5.576;2022-12-18T05:07:23;13.95;;;8.02;;
67819;SDS011;54618;52.018;5.576;2022-12-18T05:09:49;13.50;;;7.90;;
67819;SDS011;54618;52.018;5.576;2022-12-18T05:12:15;13.98;;;8.10;;
67819;SDS011;54618;52.018;5.576;2022-12-18T05:14:40;15.55;;;7.85;;
67819;SDS011;54618;52.018;5.576;2022-12-18T05:17:06;13.98;;;8.20;;
67819;SDS011;54618;52.018;5.576;2022-12-18T05:19:31;13.38;;;7.50;;
67819;SDS011;54618;52.018;5.576;2022-12-18T05:21:57;14.15;;;7.82;;
67819;SDS011;54618;52.018;5.576;2022-12-18T05:24:23;14.15;;;8.20;;
67819;SDS011;54618;52.018;5.576;2022-12-18T05:26:48;12.57;;;7.30;;
67819;SDS011;54618;52.018;5.576;2022-12-18T05:29:14;14.70;;;7.70;;
67819;SDS011;54618;52.018;5.576;2022-12-18T05:31:40;14.20;;;7.80;;
67819;SDS011;54618;52.018;5.576;2022-12-18T05:34:05;13.30;;;8.02;;
67819;SDS011;54618;52.018;5.576;2022-12-18T05:36:31;15.40;;;8.40;;
67819;SDS011;54618;52.018;5.576;2022-12-18T05:38:57;13.38;;;8.05;;
67819;SDS011;54618;52.018;5.576;2022-12-18T05:41:22;12.27;;;7.20;;
67819;SDS011;54618;52.018;5.576;2022-12-18T05:43:48;12.55;;;7.22;;
67819;SDS011;54618;52.018;5.576;2022-12-18T05:46:14;12.80;;;7.40;;
67819;SDS011;54618;52.018;5.576;2022-12-18T05:48:42;12.07;;;6.93;;
67819;SDS011;54618;52.018;5.576;2022-12-18T05:51:11;12.20;;;7.18;;
67819;SDS011;54618;52.018;5.576;2022-12-18T05:53:39;11.73;;;6.97;;
67819;SDS011;54618;52.018;5.576;2022-12-18T05:56:09;11.82;;;7.30;;
67819;SDS011;54618;52.018;5.576;2022-12-18T05:58:37;12.05;;;6.90;;
67819;SDS011;54618;52.018;5.576;2022-12-18T06:01:11;12.55;;;6.78;;
67819;SDS011;54618;52.018;5.576;2022-12-18T06:03:38;13.00;;;7.35;;
67819;SDS011;54618;52.018;5.576;2022-12-18T06:06:12;11.93;;;7.20;;
67819;SDS011;54618;52.018;5.576;2022-12-18T06:08:38;10.75;;;6.82;;
67819;SDS011;54618;52.018;5.576;2022-12-18T06:11:04;10.75;;;6.90;;
67819;SDS011;54618;52.018;5.576;2022-12-18T06:13:29;12.18;;;6.68;;
67819;SDS011;54618;52.018;5.576;2022-12-18T06:15:55;11.25;;;6.43;;
67819;SDS011;54618;52.018;5.576;2022-12-18T06:18:20;11.95;;;6.93;;
67819;SDS011;54618;52.018;5.576;2022-12-18T06:20:53;10.20;;;6.60;;
67819;SDS011;54618;52.018;5.576;2022-12-18T06:23:20;12.05;;;7.15;;
67819;SDS011;54618;52.018;5.576;2022-12-18T06:25:45;12.63;;;7.10;;
67819;SDS011;54618;52.018;5.576;2022-12-18T06:28:11;12.60;;;7.10;;
67819;SDS011;54618;52.018;5.576;2022-12-18T06:30:36;10.30;;;6.53;;
67819;SDS011;54618;52.018;5.576;2022-12-18T06:33:02;12.27;;;7.00;;
67819;SDS011;54618;52.018;5.576;2022-12-18T06:35:27;11.05;;;6.78;;
67819;SDS011;54618;52.018;5.576;2022-12-18T06:37:53;11.45;;;6.68;;
67819;SDS011;54618;52.018;5.576;2022-12-18T06:40:18;10.63;;;6.55;;
67819;SDS011;54618;52.018;5.576;2022-12-18T06:42:44;10.85;;;6.38;;
67819;SDS011;54618;52.018;5.576;2022-12-18T06:45:10;10.52;;;6.30;;
67819;SDS011;54618;52.018;5.576;2022-12-18T06:47:36;10.07;;;5.82;;
67819;SDS011;54618;52.018;5.576;2022-12-18T06:50:02;11.02;;;6.10;;
67819;SDS011;54618;52.018;5.576;2022-12-18T06:52:27;11.52;;;6.93;;
67819;SDS011;54618;52.018;5.576;2022-12-18T06:54:53;11.00;;;6.43;;
67819;SDS011;54618;52.018;5.576;2022-12-18T06:57:18;11.18;;;6.07;;
67819;SDS011;54618;52.018;5.576;2022-12-18T06:59:44;10.68;;;6.20;;
67819;SDS011;54618;52.018;5.576;2022-12-18T07:02:11;10.05;;;5.93;;
67819;SDS011;54618;52.018;5.576;2022-12-18T07:04:37;10.50;;;6.55;;
67819;SDS011;54618;52.018;5.576;2022-12-18T07:07:02;10.20;;;5.93;;
67819;SDS011;54618;52.018;5.576;2022-12-18T07:09:28;10.27;;;6.28;;
67819;SDS011;54618;52.018;5.576;2022-12-18T07:11:53;11.70;;;6.30;;
67819;SDS011;54618;52.018;5.576;2022-12-18T07:14:19;10.02;;;5.90;;
67819;SDS011;54618;52.018;5.576;2022-12-18T07:16:44;9.88;;;5.95;;
67819;SDS011;54618;52.018;5.576;2022-12-18T07:19:10;9.98;;;6.00;;
67819;SDS011;54618;52.018;5.576;2022-12-18T07:21:36;11.63;;;6.47;;
67819;SDS011;54618;52.018;5.576;2022-12-18T07:24:01;10.63;;;6.10;;
67819;SDS011;54618;52.018;5.576;2022-12-18T07:26:27;10.50;;;5.75;;
67819;SDS011;54618;52.018;5.576;2022-12-18T07:28:54;10.32;;;6.05;;
67819;SDS011;54618;52.018;5.576;2022-12-18T07:31:21;9.68;;;5.78;;
67819;SDS011;54618;52.018;5.576;2022-12-18T07:33:47;9.80;;;6.15;;
67819;SDS011;54618;52.018;5.576;2022-12-18T07:36:13;10.60;;;5.78;;
67819;SDS011;54618;52.018;5.576;2022-12-18T07:38:40;12.32;;;6.18;;
67819;SDS011;54618;52.018;5.576;2022-12-18T07:41:07;11.30;;;5.78;;
67819;SDS011;54618;52.018;5.576;2022-12-18T07:43:37;10.25;;;5.63;;
67819;SDS011;54618;52.018;5.576;2022-12-18T07:46:03;9.68;;;5.85;;
67819;SDS011;54618;52.018;5.576;2022-12-18T07:48:30;8.70;;;5.50;;
67819;SDS011;54618;52.018;5.576;2022-12-18T07:51:02;9.50;;;5.45;;
67819;SDS011;54618;52.018;5.576;2022-12-18T07:53:29;8.50;;;5.20;;
67819;SDS011;54618;52.018;5.576;2022-12-18T07:55:56;9.45;;;5.65;;
67819;SDS011;54618;52.018;5.576;2022-12-18T07:58:22;9.00;;;5.55;;
67819;SDS011;54618;52.018;5.576;2022-12-18T08:00:48;9.00;;;5.65;;
67819;SDS011;54618;52.018;5.576;2022-12-18T08:03:13;9.95;;;5.70;;
67819;SDS011;54618;52.018;5.576;2022-12-18T08:05:39;9.90;;;5.70;;
67819;SDS011;54618;52.018;5.576;2022-12-18T08:08:05;9.15;;;5.15;;
67819;SDS011;54618;52.018;5.576;2022-12-18T08:10:30;10.35;;;5.70;;
67819;SDS011;54618;52.018;5.576;2022-12-18T08:12:56;10.80;;;5.55;;
67819;SDS011;54618;52.018;5.576;2022-12-18T08:15:21;8.88;;;5.35;;
67819;SDS011;54618;52.018;5.576;2022-12-18T08:17:47;9.00;;;5.55;;
67819;SDS011;54618;52.018;5.576;2022-12-18T08:20:12;10.88;;;5.50;;
67819;SDS011;54618;52.018;5.576;2022-12-18T08:22:43;8.68;;;5.32;;
67819;SDS011;54618;52.018;5.576;2022-12-18T08:25:09;8.50;;;5.30;;
67819;SDS011;54618;52.018;5.576;2022-12-18T08:27:35;8.15;;;5.38;;
67819;SDS011;54618;52.018;5.576;2022-12-18T08:30:02;9.02;;;5.07;;
67819;SDS011;54618;52.018;5.576;2022-12-18T08:32:28;9.13;;;5.22;;
67819;SDS011;54618;52.018;5.576;2022-12-18T08:34:54;7.75;;;5.05;;
67819;SDS011;54618;52.018;5.576;2022-12-18T08:37:19;9.30;;;5.47;;
67819;SDS011;54618;52.018;5.576;2022-12-18T08:39:45;8.98;;;5.70;;
67819;SDS011;54618;52.018;5.576;2022-12-18T08:42:10;8.73;;;5.22;;
67819;SDS011;54618;52.018;5.576;2022-12-18T08:44:54;8.10;;;5.10;;
67819;SDS011;54618;52.018;5.576;2022-12-18T08:47:20;10.38;;;5.50;;
67819;SDS011;54618;52.018;5.576;2022-12-18T08:49:45;9.45;;;5.40;;
67819;SDS011;54618;52.018;5.576;2022-12-18T08:52:11;9.70;;;5.50;;
67819;SDS011;54618;52.018;5.576;2022-12-18T08:54:40;9.25;;;5.03;;
67819;SDS011;54618;52.018;5.576;2022-12-18T08:57:05;9.07;;;5.45;;
67819;SDS011;54618;52.018;5.576;2022-12-18T08:59:31;9.90;;;5.50;;
67819;SDS011;54618;52.018;5.576;2022-12-18T09:01:57;9.32;;;5.28;;
67819;SDS011;54618;52.018;5.576;2022-12-18T09:04:22;9.77;;;5.25;;
67819;SDS011;54618;52.018;5.576;2022-12-18T09:06:48;7.60;;;4.72;;
67819;SDS011;54618;52.018;5.576;2022-12-18T09:09:13;7.43;;;4.93;;
67819;SDS011;54618;52.018;5.576;2022-12-18T09:11:39;7.88;;;5.00;;
67819;SDS011;54618;52.018;5.576;2022-12-18T09:14:05;9.18;;;5.18;;
67819;SDS011;54618;52.018;5.576;2022-12-18T09:16:30;9.52;;;5.30;;
67819;SDS011;54618;52.018;5.576;2022-12-18T09:18:56;8.23;;;4.75;;
67819;SDS011;54618;52.018;5.576;2022-12-18T09:21:25;9.80;;;4.78;;
67819;SDS011;54618;52.018;5.576;2022-12-18T09:23:53;8.75;;;5.00;;
67819;SDS011;54618;52.018;5.576;2022-12-18T09:26:20;9.02;;;5.00;;
67819;SDS011;54618;52.018;5.576;2022-12-18T09:28:47;7.70;;;4.72;;
67819;SDS011;54618;52.018;5.576;2022-12-18T09:31:13;7.43;;;4.22;;
67819;SDS011;54618;52.018;5.576;2022-12-18T09:33:41;8.32;;;5.03;;
67819;SDS011;54618;52.018;5.576;2022-12-18T09:36:07;7.65;;;4.78;;
67819;SDS011;54618;52.018;5.576;2022-12-18T09:38:35;7.20;;;4.45;;
67819;SDS011;54618;52.018;5.576;2022-12-18T09:41:03;8.75;;;4.72;;
67819;SDS011;54618;52.018;5.576;2022-12-18T09:43:43;8.57;;;5.00;;
67819;SDS011;54618;52.018;5.576;2022-12-18T09:46:16;8.13;;;4.88;;
67819;SDS011;54618;52.018;5.576;2022-12-18T09:48:46;7.78;;;4.55;;
67819;SDS011;54618;52.018;5.576;2022-12-18T09:51:15;8.48;;;4.70;;
67819;SDS011;54618;52.018;5.576;2022-12-18T09:53:44;6.82;;;4.20;;
67819;SDS011;54618;52.018;5.576;2022-12-18T09:56:18;8.07;;;4.40;;
67819;SDS011;54618;52.018;5.576;2022-12-18T09:58:49;7.15;;;4.30;;
67819;SDS011;54618;52.018;5.576;2022-12-18T10:01:22;7.95;;;4.80;;
67819;SDS011;54618;52.018;5.576;2022-12-18T10:03:48;9.20;;;4.63;;
67819;SDS011;54618;52.018;5.576;2022-12-18T10:06:18;8.55;;;4.38;;
67819;SDS011;54618;52.018;5.576;2022-12-18T10:11:31;7.10;;;4.15;;
67819;SDS011;54618;52.018;5.576;2022-12-18T10:19:57;7.47;;;4.28;;
67819;SDS011;54618;52.018;5.576;2022-12-18T10:25:17;7.57;;;4.25;;
67819;SDS011;54618;52.018;5.576;2022-12-18T10:27:46;7.93;;;4.40;;
67819;SDS011;54618;52.018;5.576;2022-12-18T10:30:14;7.80;;;4.40;;
67819;SDS011;54618;52.018;5.576;2022-12-18T10:32:41;7.90;;;4.47;;
67819;SDS011;54618;52.018;5.576;2022-12-18T10:35:07;7.55;;;4.07;;
67819;SDS011;54618;52.018;5.576;2022-12-18T10:38:06;9.85;;;4.57;;
67819;SDS011;54618;52.018;5.576;2022-12-18T10:40:32;7.25;;;4.25;;
67819;SDS011;54618;52.018;5.576;2022-12-18T10:43:12;6.90;;;4.00;;
67819;SDS011;54618;52.018;5.576;2022-12-18T10:45:39;8.10;;;3.92;;
67819;SDS011;54618;52.018;5.576;2022-12-18T10:48:17;6.90;;;3.85;;
67819;SDS011;54618;52.018;5.576;2022-12-18T10:50:46;6.75;;;3.95;;
67819;SDS011;54618;52.018;5.576;2022-12-18T10:53:16;7.72;;;4.25;;
67819;SDS011;54618;52.018;5.576;2022-12-18T10:55:48;7.28;;;3.85;;
67819;SDS011;54618;52.018;5.576;2022-12-18T11:00:45;7.63;;;4.27;;
67819;SDS011;54618;52.018;5.576;2022-12-18T11:03:29;7.30;;;4.15;;
67819;SDS011;54618;52.018;5.576;2022-12-18T11:06:02;6.53;;;3.67;;
67819;SDS011;54618;52.018;5.576;2022-12-18T11:11:26;7.53;;;4.22;;
67819;SDS011;54618;52.018;5.576;2022-12-18T11:16:20;7.65;;;4.28;;
67819;SDS011;54618;52.018;5.576;2022-12-18T11:18:46;7.28;;;4.40;;
67819;SDS011;54618;52.018;5.576;2022-12-18T11:21:12;7.22;;;4.03;;
67819;SDS011;54618;52.018;5.576;2022-12-18T11:23:45;5.88;;;3.83;;
67819;SDS011;54618;52.018;5.576;2022-12-18T11:26:14;7.90;;;4.25;;
67819;SDS011;54618;52.018;5.576;2022-12-18T11:28:41;7.22;;;4.05;;
67819;SDS011;54618;52.018;5.576;2022-12-18T11:34:32;7.70;;;4.35;;
67819;SDS011;54618;52.018;5.576;2022-12-18T11:36:51;6.05;;;3.63;;
67819;SDS011;54618;52.018;5.576;2022-12-18T11:39:22;6.90;;;3.70;;
67819;SDS011;54618;52.018;5.576;2022-12-18T11:50:46;6.80;;;3.92;;
67819;SDS011;54618;52.018;5.576;2022-12-18T11:53:17;6.88;;;3.95;;
67819;SDS011;54618;52.018;5.576;2022-12-18T11:55:47;8.18;;;3.92;;
67819;SDS011;54618;52.018;5.576;2022-12-18T11:58:51;7.80;;;3.80;;
67819;SDS011;54618;52.018;5.576;2022-12-18T12:09:48;6.53;;;3.83;;
67819;SDS011;54618;52.018;5.576;2022-12-18T12:12:32;6.90;;;4.00;;
67819;SDS011;54618;52.018;5.576;2022-12-18T12:18:11;6.03;;;3.83;;
67819;SDS011;54618;52.018;5.576;2022-12-18T12:20:49;7.90;;;3.88;;
67819;SDS011;54618;52.018;5.576;2022-12-18T12:23:33;6.53;;;3.93;;
67819;SDS011;54618;52.018;5.576;2022-12-18T12:26:19;7.75;;;4.10;;
67819;SDS011;54618;52.018;5.576;2022-12-18T12:40:26;6.82;;;4.03;;
67819;SDS011;54618;52.018;5.576;2022-12-18T12:42:56;6.95;;;4.05;;
67819;SDS011;54618;52.018;5.576;2022-12-18T12:45:47;7.90;;;4.28;;
67819;SDS011;54618;52.018;5.576;2022-12-18T12:48:27;6.80;;;3.85;;
67819;SDS011;54618;52.018;5.576;2022-12-18T12:51:10;7.32;;;4.20;;
67819;SDS011;54618;52.018;5.576;2022-12-18T12:53:49;6.93;;;3.97;;
67819;SDS011;54618;52.018;5.576;2022-12-18T12:56:16;6.32;;;3.72;;
67819;SDS011;54618;52.018;5.576;2022-12-18T13:02:14;6.60;;;3.70;;
67819;SDS011;54618;52.018;5.576;2022-12-18T13:07:10;7.07;;;3.90;;
67819;SDS011;54618;52.018;5.576;2022-12-18T13:15:39;7.43;;;4.30;;
67819;SDS011;54618;52.018;5.576;2022-12-18T13:20:41;7.75;;;4.57;;
67819;SDS011;54618;52.018;5.576;2022-12-18T13:25:50;7.13;;;4.18;;
67819;SDS011;54618;52.018;5.576;2022-12-18T13:28:18;7.32;;;3.67;;
67819;SDS011;54618;52.018;5.576;2022-12-18T13:31:08;6.88;;;4.13;;
67819;SDS011;54618;52.018;5.576;2022-12-18T13:38:44;7.45;;;3.80;;
67819;SDS011;54618;52.018;5.576;2022-12-18T13:41:24;7.35;;;4.20;;
67819;SDS011;54618;52.018;5.576;2022-12-18T13:43:52;8.05;;;4.25;;
67819;SDS011;54618;52.018;5.576;2022-12-18T13:46:44;7.03;;;4.03;;
67819;SDS011;54618;52.018;5.576;2022-12-18T13:51:39;7.75;;;4.05;;
67819;SDS011;54618;52.018;5.576;2022-12-18T13:54:14;7.30;;;4.32;;
67819;SDS011;54618;52.018;5.576;2022-12-18T13:57:00;6.97;;;3.78;;
67819;SDS011;54618;52.018;5.576;2022-12-18T13:59:26;6.80;;;3.60;;
67819;SDS011;54618;52.018;5.576;2022-12-18T14:02:12;7.00;;;3.72;;
67819;SDS011;54618;52.018;5.576;2022-12-18T14:04:40;6.30;;;4.15;;
67819;SDS011;54618;52.018;5.576;2022-12-18T14:07:07;7.70;;;4.20;;
67819;SDS011;54618;52.018;5.576;2022-12-18T14:09:57;7.20;;;4.20;;
67819;SDS011;54618;52.018;5.576;2022-12-18T14:12:32;7.78;;;4.35;;
67819;SDS011;54618;52.018;5.576;2022-12-18T14:18:13;7.47;;;4.20;;
67819;SDS011;54618;52.018;5.576;2022-12-18T14:20:50;7.40;;;4.60;;
67819;SDS011;54618;52.018;5.576;2022-12-18T14:26:18;8.23;;;4.88;;
67819;SDS011;54618;52.018;5.576;2022-12-18T14:28:45;8.60;;;5.07;;
67819;SDS011;54618;52.018;5.576;2022-12-18T14:31:21;9.23;;;4.97;;
67819;SDS011;54618;52.018;5.576;2022-12-18T14:33:48;9.00;;;5.43;;
67819;SDS011;54618;52.018;5.576;2022-12-18T14:36:16;8.27;;;5.00;;
67819;SDS011;54618;52.018;5.576;2022-12-18T14:38:47;9.23;;;5.07;;
67819;SDS011;54618;52.018;5.576;2022-12-18T14:41:17;8.23;;;4.90;;
67819;SDS011;54618;52.018;5.576;2022-12-18T14:43:44;9.65;;;5.65;;
67819;SDS011;54618;52.018;5.576;2022-12-18T14:49:25;10.63;;;6.10;;
67819;SDS011;54618;52.018;5.576;2022-12-18T14:51:55;9.70;;;6.03;;
67819;SDS011;54618;52.018;5.576;2022-12-18T14:57:21;10.57;;;5.45;;
67819;SDS011;54618;52.018;5.576;2022-12-18T14:59:48;9.68;;;5.28;;
67819;SDS011;54618;52.018;5.576;2022-12-18T15:04:45;11.10;;;5.75;;
67819;SDS011;54618;52.018;5.576;2022-12-18T15:07:16;9.63;;;5.57;;
67819;SDS011;54618;52.018;5.576;2022-12-18T15:09:44;9.68;;;5.78;;
67819;SDS011;54618;52.018;5.576;2022-12-18T15:12:28;10.38;;;5.75;;
67819;SDS011;54618;52.018;5.576;2022-12-18T15:15:01;8.85;;;5.32;;
67819;SDS011;54618;52.018;5.576;2022-12-18T15:17:27;12.10;;;6.50;;
67819;SDS011;54618;52.018;5.576;2022-12-18T15:19:53;11.52;;;6.35;;
67819;SDS011;54618;52.018;5.576;2022-12-18T15:22:34;10.13;;;5.82;;
67819;SDS011;54618;52.018;5.576;2022-12-18T15:25:01;10.93;;;5.85;;
67819;SDS011;54618;52.018;5.576;2022-12-18T15:27:31;10.43;;;6.30;;
67819;SDS011;54618;52.018;5.576;2022-12-18T15:32:37;9.07;;;5.80;;
67819;SDS011;54618;52.018;5.576;2022-12-18T15:35:11;10.05;;;6.03;;
67819;SDS011;54618;52.018;5.576;2022-12-18T15:37:40;9.45;;;5.88;;
67819;SDS011;54618;52.018;5.576;2022-12-18T15:40:07;11.27;;;6.07;;
67819;SDS011;54618;52.018;5.576;2022-12-18T15:42:36;11.00;;;5.88;;
67819;SDS011;54618;52.018;5.576;2022-12-18T15:45:20;10.43;;;5.90;;
67819;SDS011;54618;52.018;5.576;2022-12-18T15:47:46;12.30;;;6.05;;
67819;SDS011;54618;52.018;5.576;2022-12-18T15:50:11;10.88;;;5.60;;
67819;SDS011;54618;52.018;5.576;2022-12-18T15:52:41;9.95;;;5.63;;
67819;SDS011;54618;52.018;5.576;2022-12-18T15:55:10;10.30;;;6.00;;
67819;SDS011;54618;52.018;5.576;2022-12-18T15:57:56;12.32;;;6.50;;
67819;SDS011;54618;52.018;5.576;2022-12-18T16:00:22;10.00;;;5.88;;
67819;SDS011;54618;52.018;5.576;2022-12-18T16:02:47;9.82;;;5.88;;
67819;SDS011;54618;52.018;5.576;2022-12-18T16:05:16;10.75;;;5.88;;
67819;SDS011;54618;52.018;5.576;2022-12-18T16:07:43;12.60;;;6.27;;
67819;SDS011;54618;52.018;5.576;2022-12-18T16:10:10;11.05;;;6.35;;
67819;SDS011;54618;52.018;5.576;2022-12-18T16:12:35;10.45;;;5.82;;
67819;SDS011;54618;52.018;5.576;2022-12-18T16:15:01;10.48;;;5.80;;
67819;SDS011;54618;52.018;5.576;2022-12-18T16:17:28;12.18;;;6.50;;
67819;SDS011;54618;52.018;5.576;2022-12-18T16:19:53;11.13;;;6.50;;
67819;SDS011;54618;52.018;5.576;2022-12-18T16:22:20;11.45;;;6.43;;
67819;SDS011;54618;52.018;5.576;2022-12-18T16:24:48;9.60;;;5.82;;
67819;SDS011;54618;52.018;5.576;2022-12-18T16:27:15;10.48;;;6.25;;
67819;SDS011;54618;52.018;5.576;2022-12-18T16:29:40;11.65;;;6.43;;
67819;SDS011;54618;52.018;5.576;2022-12-18T16:32:06;10.73;;;6.30;;
67819;SDS011;54618;52.018;5.576;2022-12-18T16:34:40;13.30;;;6.80;;
67819;SDS011;54618;52.018;5.576;2022-12-18T16:37:07;12.05;;;6.43;;
67819;SDS011;54618;52.018;5.576;2022-12-18T16:39:34;11.05;;;6.38;;
67819;SDS011;54618;52.018;5.576;2022-12-18T16:42:02;10.15;;;6.07;;
67819;SDS011;54618;52.018;5.576;2022-12-18T16:44:33;13.60;;;6.75;;
67819;SDS011;54618;52.018;5.576;2022-12-18T16:46:59;9.82;;;5.75;;
67819;SDS011;54618;52.018;5.576;2022-12-18T16:49:26;11.98;;;6.82;;
67819;SDS011;54618;52.018;5.576;2022-12-18T16:51:52;13.27;;;6.60;;
67819;SDS011;54618;52.018;5.576;2022-12-18T16:54:18;13.07;;;7.13;;
67819;SDS011;54618;52.018;5.576;2022-12-18T16:56:44;12.88;;;6.90;;